Time;durP1;ratioP1;P1;durP2;ratioP2;P2;SDS_P1;SDS_P2;PMS_P1;PMS_P2;Temp;Humidity;BMP_temperature;BMP_pressure;BME280_temperature;BME280_humidity;BME280_pressure;Samples;Min_cycle;Max_cycle;Signal;HPM_P1;HPM_P2
2022/04/03 00:01:29;;;;;;;5.40;3.70;;;;;;;;;;5002333;28;20509;-82
2022/04/03 00:03:55;;;;;;;6.35;4.07;;;;;;;;;;5002728;28;20422;-82
2022/04/03 00:06:23;;;;;;;6.07;4.10;;;;;;;;;;5003252;28;20438;-82
2022/04/03 00:08:49;;;;;;;5.70;4.17;;;;;;;;;;5002733;28;20561;-81
2022/04/03 00:11:16;;;;;;;6.82;4.50;;;;;;;;;;5002213;28;20480;-82
2022/04/03 00:13:43;;;;;;;4.82;3.85;;;;;;;;;;5002088;28;20414;-82
2022/04/03 00:16:10;;;;;;;7.55;4.90;;;;;;;;;;5002268;28;20441;-82
2022/04/03 00:18:36;;;;;;;6.70;4.40;;;;;;;;;;5000597;28;20479;-82
2022/04/03 00:21:03;;;;;;;6.47;4.80;;;;;;;;;;5001599;28;20930;-81
2022/04/03 00:23:30;;;;;;;6.25;4.50;;;;;;;;;;5003154;28;20414;-82
2022/04/03 00:25:56;;;;;;;5.90;4.28;;;;;;;;;;5000142;28;20812;-81
2022/04/03 00:28:26;;;;;;;5.75;4.30;;;;;;;;;;5003116;28;20668;-82
2022/04/03 00:30:52;;;;;;;6.93;4.60;;;;;;;;;;5002909;28;20444;-82
2022/04/03 00:33:18;;;;;;;5.70;4.00;;;;;;;;;;5001952;28;20487;-82
2022/04/03 00:35:44;;;;;;;5.43;4.72;;;;;;;;;;5001395;28;20784;-81
2022/04/03 00:38:11;;;;;;;5.82;4.47;;;;;;;;;;5001067;28;20438;-81
2022/04/03 00:40:38;;;;;;;7.03;4.70;;;;;;;;;;5001270;28;20441;-82
2022/04/03 00:43:05;;;;;;;6.70;4.80;;;;;;;;;;5001884;28;20769;-82
2022/04/03 00:45:31;;;;;;;7.30;5.00;;;;;;;;;;5003725;28;21001;-82
2022/04/03 00:47:57;;;;;;;4.70;4.27;;;;;;;;;;5003120;28;20512;-81
2022/04/03 00:50:23;;;;;;;7.32;4.75;;;;;;;;;;5001284;28;20430;-82
2022/04/03 00:52:50;;;;;;;9.82;4.90;;;;;;;;;;5004373;28;20487;-82
2022/04/03 00:55:16;;;;;;;5.38;4.40;;;;;;;;;;5001173;28;20422;-82
2022/04/03 00:57:44;;;;;;;9.02;5.20;;;;;;;;;;4999848;28;20490;-82
2022/04/03 01:00:12;;;;;;;7.35;4.95;;;;;;;;;;5001651;28;21075;-83
2022/04/03 01:02:38;;;;;;;6.35;5.50;;;;;;;;;;5003450;28;20475;-82
2022/04/03 01:05:05;;;;;;;7.63;5.80;;;;;;;;;;5000928;28;20459;-82
2022/04/03 01:07:31;;;;;;;6.33;5.50;;;;;;;;;;5000157;28;20495;-82
2022/04/03 01:09:59;;;;;;;5.88;5.25;;;;;;;;;;4999764;28;20427;-82
2022/04/03 01:12:25;;;;;;;7.03;5.30;;;;;;;;;;4999464;28;20433;-82
2022/04/03 01:14:53;;;;;;;7.05;5.28;;;;;;;;;;5001649;28;20434;-82
2022/04/03 01:17:19;;;;;;;5.78;5.10;;;;;;;;;;5002775;28;20439;-82
2022/04/03 01:19:47;;;;;;;7.20;5.20;;;;;;;;;;5000391;28;22277;-81
2022/04/03 01:22:13;;;;;;;6.90;5.10;;;;;;;;;;5001261;28;21040;-82
2022/04/03 01:24:42;;;;;;;5.85;5.03;;;;;;;;;;5001273;28;20960;-82
2022/04/03 01:27:10;;;;;;;6.93;4.75;;;;;;;;;;5001286;28;20442;-82
2022/04/03 01:29:37;;;;;;;8.32;5.68;;;;;;;;;;5002243;28;20500;-82
2022/04/03 01:32:03;;;;;;;7.13;5.07;;;;;;;;;;5000232;28;20435;-82
2022/04/03 01:34:30;;;;;;;7.63;4.30;;;;;;;;;;5002560;28;20855;-82
2022/04/03 01:36:56;;;;;;;6.85;4.63;;;;;;;;;;5002185;28;21003;-81
2022/04/03 01:39:22;;;;;;;7.60;4.65;;;;;;;;;;5002109;28;20820;-82
2022/04/03 01:41:48;;;;;;;5.68;4.32;;;;;;;;;;5001100;28;20992;-82
2022/04/03 01:44:16;;;;;;;6.20;4.50;;;;;;;;;;4999075;28;20945;-82
2022/04/03 01:46:43;;;;;;;6.90;4.50;;;;;;;;;;5001681;28;20463;-82
2022/04/03 01:49:10;;;;;;;5.95;4.30;;;;;;;;;;5001895;28;20848;-82
2022/04/03 01:51:37;;;;;;;5.28;3.90;;;;;;;;;;5003212;28;20771;-82
2022/04/03 01:54:03;;;;;;;5.60;4.30;;;;;;;;;;5002800;28;21089;-81
2022/04/03 01:56:29;;;;;;;5.63;3.80;;;;;;;;;;5002305;28;20494;-82
2022/04/03 01:58:56;;;;;;;5.50;3.83;;;;;;;;;;5001583;28;20418;-82
2022/04/03 02:01:24;;;;;;;6.37;3.60;;;;;;;;;;5003098;28;20860;-83
2022/04/03 02:03:50;;;;;;;7.55;4.10;;;;;;;;;;4999806;28;20834;-82
2022/04/03 02:06:17;;;;;;;6.18;4.28;;;;;;;;;;5002550;28;20439;-82
2022/04/03 02:08:43;;;;;;;6.50;4.35;;;;;;;;;;5000606;28;20425;-82
2022/04/03 02:11:09;;;;;;;7.75;4.20;;;;;;;;;;5002772;28;20438;-82
2022/04/03 02:13:35;;;;;;;8.98;4.47;;;;;;;;;;5002221;28;20465;-82
2022/04/03 02:16:02;;;;;;;6.22;4.68;;;;;;;;;;5002885;28;20436;-82
2022/04/03 02:18:29;;;;;;;6.18;4.47;;;;;;;;;;5000636;28;20417;-82
2022/04/03 02:20:56;;;;;;;6.13;4.40;;;;;;;;;;5001934;28;20505;-81
2022/04/03 02:23:22;;;;;;;7.47;4.50;;;;;;;;;;5001677;28;20498;-81
2022/04/03 02:25:50;;;;;;;6.18;4.68;;;;;;;;;;5001580;28;20430;-82
2022/04/03 02:28:16;;;;;;;6.15;4.55;;;;;;;;;;5004259;28;20521;-81
2022/04/03 02:30:43;;;;;;;6.80;4.30;;;;;;;;;;5007182;28;20954;-82
2022/04/03 02:33:09;;;;;;;5.82;4.20;;;;;;;;;;5004933;28;20500;-82
2022/04/03 02:35:36;;;;;;;5.00;4.50;;;;;;;;;;5004036;28;20442;-82
2022/04/03 02:38:07;;;;;;;7.60;4.13;;;;;;;;;;5004595;28;20442;-81
2022/04/03 02:40:33;;;;;;;7.00;4.70;;;;;;;;;;5003690;28;20465;-82
2022/04/03 02:43:00;;;;;;;6.68;4.57;;;;;;;;;;5006776;28;20442;-82
2022/04/03 02:45:26;;;;;;;6.70;4.07;;;;;;;;;;4987355;28;20848;-82
2022/04/03 02:47:54;;;;;;;6.18;4.63;;;;;;;;;;4985816;28;20446;-81
2022/04/03 02:50:21;;;;;;;8.98;4.78;;;;;;;;;;4985322;28;20833;-81
2022/04/03 02:52:49;;;;;;;7.68;4.45;;;;;;;;;;4983823;28;20435;-81
2022/04/03 02:55:15;;;;;;;5.87;4.40;;;;;;;;;;4984245;28;20434;-82
2022/04/03 02:57:41;;;;;;;6.90;4.40;;;;;;;;;;4985015;28;20424;-82
2022/04/03 03:00:08;;;;;;;7.95;4.65;;;;;;;;;;4986672;28;20501;-82
2022/04/03 03:02:34;;;;;;;6.78;4.30;;;;;;;;;;4985074;28;20443;-82
2022/04/03 03:05:00;;;;;;;6.50;4.80;;;;;;;;;;4983724;28;20442;-81
2022/04/03 03:07:35;;;;;;;6.50;4.50;;;;;;;;;;4982509;28;20442;-82
2022/04/03 03:10:03;;;;;;;8.53;4.40;;;;;;;;;;4983432;28;20519;-82
2022/04/03 03:12:29;;;;;;;7.40;5.10;;;;;;;;;;4984765;28;20471;-82
2022/04/03 03:14:56;;;;;;;8.30;5.50;;;;;;;;;;4984616;28;21031;-81
2022/04/03 03:17:23;;;;;;;7.90;5.33;;;;;;;;;;4986814;28;20893;-81
2022/04/03 03:19:49;;;;;;;7.05;4.70;;;;;;;;;;4983479;28;20476;-81
2022/04/03 03:22:15;;;;;;;7.68;5.13;;;;;;;;;;4984490;28;20461;-82
2022/04/03 03:24:41;;;;;;;6.65;5.03;;;;;;;;;;4983119;28;20430;-82
2022/04/03 03:27:09;;;;;;;5.70;4.43;;;;;;;;;;4985664;28;20509;-81
2022/04/03 03:29:35;;;;;;;5.97;4.85;;;;;;;;;;4982599;28;20439;-82
2022/04/03 03:32:02;;;;;;;7.75;5.00;;;;;;;;;;4984936;28;20441;-82
2022/04/03 03:34:28;;;;;;;6.68;5.00;;;;;;;;;;4986123;28;20432;-82
2022/04/03 03:36:54;;;;;;;7.28;4.70;;;;;;;;;;4984836;28;20855;-81
2022/04/03 03:39:20;;;;;;;6.60;4.85;;;;;;;;;;4982855;28;20833;-82
2022/04/03 03:41:47;;;;;;;6.95;5.05;;;;;;;;;;4985112;28;20458;-82
2022/04/03 03:44:14;;;;;;;7.28;5.10;;;;;;;;;;4985316;28;21013;-81
2022/04/03 03:46:41;;;;;;;7.47;5.30;;;;;;;;;;4985382;28;21002;-82
2022/04/03 03:49:07;;;;;;;6.80;5.00;;;;;;;;;;4985255;28;20477;-82
2022/04/03 03:51:34;;;;;;;6.88;4.70;;;;;;;;;;4986250;28;20968;-81
2022/04/03 03:54:00;;;;;;;6.63;4.80;;;;;;;;;;4984823;28;20455;-81
2022/04/03 03:56:27;;;;;;;7.57;4.47;;;;;;;;;;4982855;28;20725;-81
2022/04/03 03:58:53;;;;;;;5.43;4.65;;;;;;;;;;4982609;28;20434;-82
2022/04/03 04:01:21;;;;;;;6.25;4.40;;;;;;;;;;4984880;28;20438;-82
2022/04/03 04:03:47;;;;;;;5.23;4.50;;;;;;;;;;4985505;28;20445;-80
2022/04/03 04:06:14;;;;;;;6.90;4.88;;;;;;;;;;4985914;28;20493;-82
2022/04/03 04:08:40;;;;;;;9.48;5.30;;;;;;;;;;4983112;28;20416;-82
2022/04/03 04:11:06;;;;;;;8.77;5.20;;;;;;;;;;4983436;28;20743;-82
2022/04/03 04:13:33;;;;;;;6.70;4.80;;;;;;;;;;4984347;28;20418;-82
2022/04/03 04:15:59;;;;;;;6.55;4.57;;;;;;;;;;4983853;28;20430;-81
2022/04/03 04:18:26;;;;;;;7.72;5.00;;;;;;;;;;4983921;28;20465;-82
2022/04/03 04:20:53;;;;;;;9.10;5.05;;;;;;;;;;5003757;23;20456;-80
2022/04/03 04:23:19;;;;;;;5.70;4.60;;;;;;;;;;5019953;28;20444;-80
2022/04/03 04:25:46;;;;;;;7.10;4.57;;;;;;;;;;5033823;28;20512;-81
2022/04/03 04:28:12;;;;;;;5.78;4.80;;;;;;;;;;5038257;28;20437;-81
2022/04/03 04:30:39;;;;;;;7.28;4.80;;;;;;;;;;5036696;28;20427;-81
2022/04/03 04:33:06;;;;;;;7.78;5.70;;;;;;;;;;5036869;28;20430;-81
2022/04/03 04:35:34;;;;;;;7.35;5.15;;;;;;;;;;5039116;28;20832;-81
2022/04/03 04:38:00;;;;;;;7.63;5.18;;;;;;;;;;5040422;28;20437;-80
2022/04/03 04:40:26;;;;;;;7.80;5.03;;;;;;;;;;5034192;28;20430;-80
2022/04/03 04:42:53;;;;;;;9.45;5.30;;;;;;;;;;5037755;28;20554;-81
2022/04/03 04:45:19;;;;;;;6.43;4.63;;;;;;;;;;5039004;28;20427;-82
2022/04/03 04:47:48;;;;;;;6.38;4.70;;;;;;;;;;5038132;28;20517;-80
2022/04/03 04:50:15;;;;;;;5.50;4.90;;;;;;;;;;5038090;28;20923;-80
2022/04/03 04:52:43;;;;;;;5.95;4.15;;;;;;;;;;5035653;28;20433;-81
2022/04/03 04:55:10;;;;;;;6.67;4.73;;;;;;;;;;5037353;28;20478;-81
2022/04/03 04:57:36;;;;;;;7.03;4.80;;;;;;;;;;5036870;28;20437;-81
2022/04/03 05:00:04;;;;;;;5.78;4.40;;;;;;;;;;5037532;28;20926;-79
2022/04/03 05:02:30;;;;;;;6.97;5.15;;;;;;;;;;5037625;28;20840;-81
2022/04/03 05:04:56;;;;;;;5.85;4.55;;;;;;;;;;5035781;28;20866;-82
2022/04/03 05:07:23;;;;;;;7.25;5.05;;;;;;;;;;5039036;28;20425;-80
2022/04/03 05:09:51;;;;;;;6.70;4.30;;;;;;;;;;5035833;28;20509;-81
2022/04/03 05:12:18;;;;;;;6.00;4.60;;;;;;;;;;5037443;28;20848;-82
2022/04/03 05:14:44;;;;;;;6.25;4.35;;;;;;;;;;5036818;28;20477;-79
2022/04/03 05:17:10;;;;;;;5.72;4.65;;;;;;;;;;5039579;28;20427;-82
2022/04/03 05:19:37;;;;;;;8.02;5.20;;;;;;;;;;5034797;28;20419;-81
2022/04/03 05:22:03;;;;;;;6.53;4.60;;;;;;;;;;5036586;28;20518;-81
2022/04/03 05:24:30;;;;;;;6.15;5.00;;;;;;;;;;5038139;28;20421;-81
2022/04/03 05:26:57;;;;;;;8.35;4.90;;;;;;;;;;5036429;28;20479;-81
2022/04/03 05:29:23;;;;;;;6.18;4.20;;;;;;;;;;5031542;28;20475;-80
2022/04/03 05:31:50;;;;;;;5.10;4.60;;;;;;;;;;5038107;28;20913;-81
2022/04/03 05:34:16;;;;;;;6.35;4.90;;;;;;;;;;5037954;28;20421;-81
2022/04/03 05:36:42;;;;;;;5.60;4.68;;;;;;;;;;5035254;28;20477;-81
2022/04/03 05:39:08;;;;;;;8.23;4.72;;;;;;;;;;5038020;28;20413;-81
2022/04/03 05:41:35;;;;;;;6.90;5.25;;;;;;;;;;5038001;28;20431;-80
2022/04/03 05:44:02;;;;;;;8.30;4.90;;;;;;;;;;5032697;28;20426;-82
2022/04/03 05:46:29;;;;;;;7.22;4.88;;;;;;;;;;5035715;28;20438;-81
2022/04/03 05:48:55;;;;;;;6.85;4.70;;;;;;;;;;5036986;28;20417;-81
2022/04/03 05:51:21;;;;;;;5.63;4.22;;;;;;;;;;5038598;28;20433;-81
2022/04/03 05:53:48;;;;;;;6.85;4.75;;;;;;;;;;5038878;28;20705;-81
2022/04/03 05:56:14;;;;;;;6.43;4.57;;;;;;;;;;5037662;28;20440;-81
2022/04/03 05:58:40;;;;;;;6.90;4.80;;;;;;;;;;5036542;28;20450;-81
2022/04/03 06:01:08;;;;;;;6.95;4.60;;;;;;;;;;5037158;28;20481;-81
2022/04/03 06:03:34;;;;;;;6.93;4.70;;;;;;;;;;5041772;28;20409;-81
2022/04/03 06:06:01;;;;;;;8.18;4.70;;;;;;;;;;5038428;28;20440;-82
2022/04/03 06:08:27;;;;;;;4.95;4.45;;;;;;;;;;5043364;28;20425;-81
2022/04/03 06:10:53;;;;;;;6.65;4.75;;;;;;;;;;5040238;28;20429;-79
2022/04/03 06:13:22;;;;;;;8.10;5.72;;;;;;;;;;5040504;28;20478;-81
2022/04/03 06:15:48;;;;;;;7.25;4.55;;;;;;;;;;5037237;28;20511;-80
2022/04/03 06:18:16;;;;;;;5.72;4.40;;;;;;;;;;5038474;28;20446;-81
2022/04/03 06:20:43;;;;;;;5.55;4.43;;;;;;;;;;5037509;28;20445;-81
2022/04/03 06:23:13;;;;;;;5.93;4.50;;;;;;;;;;5042256;28;21166;-82
2022/04/03 06:25:39;;;;;;;5.90;4.25;;;;;;;;;;5042808;28;20836;-81
2022/04/03 06:28:06;;;;;;;5.15;4.00;;;;;;;;;;5042406;28;20435;-82
2022/04/03 06:30:32;;;;;;;4.97;4.20;;;;;;;;;;5040134;28;20480;-80
2022/04/03 06:32:58;;;;;;;5.70;4.30;;;;;;;;;;5042217;28;20430;-82
2022/04/03 06:35:26;;;;;;;6.60;4.47;;;;;;;;;;5042437;28;20442;-81
2022/04/03 06:37:52;;;;;;;9.23;4.60;;;;;;;;;;5040724;28;20448;-81
2022/04/03 06:40:19;;;;;;;4.95;4.40;;;;;;;;;;5038608;28;20429;-81
2022/04/03 06:42:45;;;;;;;5.00;4.50;;;;;;;;;;5043544;28;20425;-79
2022/04/03 06:45:11;;;;;;;6.43;4.82;;;;;;;;;;5037077;28;20447;-80
2022/04/03 06:47:38;;;;;;;7.63;4.40;;;;;;;;;;5040257;28;20491;-81
2022/04/03 06:50:04;;;;;;;7.23;4.90;;;;;;;;;;5033914;28;20435;-81
2022/04/03 06:52:32;;;;;;;6.93;4.22;;;;;;;;;;5044331;28;20977;-82
2022/04/03 06:54:58;;;;;;;6.80;4.70;;;;;;;;;;5034707;28;20988;-82
2022/04/03 06:57:24;;;;;;;8.55;4.60;;;;;;;;;;5042689;28;20411;-81
2022/04/03 06:59:50;;;;;;;6.93;4.30;;;;;;;;;;5041579;28;20464;-79
2022/04/03 07:02:17;;;;;;;4.50;4.05;;;;;;;;;;5044126;28;20491;-81
2022/04/03 07:04:43;;;;;;;4.70;4.20;;;;;;;;;;5038602;28;20423;-81
2022/04/03 07:07:10;;;;;;;5.60;4.20;;;;;;;;;;5040685;28;20512;-79
2022/04/03 07:09:40;;;;;;;7.00;4.70;;;;;;;;;;5037706;28;20429;-80
2022/04/03 07:12:07;;;;;;;5.65;3.60;;;;;;;;;;5040852;28;20474;-81
2022/04/03 07:14:33;;;;;;;6.88;3.97;;;;;;;;;;5038825;28;20431;-80
2022/04/03 07:16:59;;;;;;;4.30;3.83;;;;;;;;;;5033456;28;20440;-80
2022/04/03 07:19:25;;;;;;;5.57;3.95;;;;;;;;;;5036128;28;20417;-79
2022/04/03 07:21:52;;;;;;;4.55;3.50;;;;;;;;;;5042956;28;20417;-80
2022/04/03 07:24:18;;;;;;;4.85;4.00;;;;;;;;;;5044040;28;20415;-81
2022/04/03 07:26:45;;;;;;;5.20;3.78;;;;;;;;;;5040981;28;20426;-77
2022/04/03 07:29:12;;;;;;;5.82;4.03;;;;;;;;;;5040636;28;20471;-79
2022/04/03 07:31:38;;;;;;;4.95;3.88;;;;;;;;;;5042388;28;20496;-79
2022/04/03 07:34:04;;;;;;;5.43;4.93;;;;;;;;;;5036744;28;20497;-80
2022/04/03 07:36:31;;;;;;;5.63;4.50;;;;;;;;;;5042384;28;20510;-80
2022/04/03 07:38:57;;;;;;;5.10;4.60;;;;;;;;;;5042722;28;20419;-79
2022/04/03 07:41:23;;;;;;;5.72;4.60;;;;;;;;;;5039901;28;20506;-80
2022/04/03 07:43:51;;;;;;;7.10;4.60;;;;;;;;;;5041914;28;20415;-82
2022/04/03 07:46:17;;;;;;;7.47;4.82;;;;;;;;;;5042842;28;20517;-80
2022/04/03 07:48:43;;;;;;;5.75;4.22;;;;;;;;;;5041229;28;20832;-79
2022/04/03 07:51:10;;;;;;;6.50;4.90;;;;;;;;;;5044724;28;20436;-79
2022/04/03 07:53:36;;;;;;;4.70;4.30;;;;;;;;;;5043482;28;20418;-79
2022/04/03 07:56:04;;;;;;;5.45;4.93;;;;;;;;;;5042846;28;20502;-79
2022/04/03 07:58:30;;;;;;;8.67;5.10;;;;;;;;;;5043203;28;20473;-80
2022/04/03 08:00:58;;;;;;;4.30;3.70;;;;;;;;;;5040049;28;20435;-79
2022/04/03 08:03:25;;;;;;;7.28;3.90;;;;;;;;;;5047910;28;20409;-81
2022/04/03 08:05:51;;;;;;;3.70;3.30;;;;;;;;;;5043879;28;20499;-80
2022/04/03 08:08:17;;;;;;;4.35;3.60;;;;;;;;;;5045287;28;20458;-81
2022/04/03 08:10:44;;;;;;;3.88;3.58;;;;;;;;;;5040950;28;20576;-80
2022/04/03 08:13:10;;;;;;;5.47;3.10;;;;;;;;;;5046323;28;20436;-82
2022/04/03 08:15:36;;;;;;;5.20;3.70;;;;;;;;;;5047169;28;20435;-82
2022/04/03 08:18:04;;;;;;;4.50;3.30;;;;;;;;;;5048398;28;20413;-83
2022/04/03 08:20:31;;;;;;;4.28;3.80;;;;;;;;;;5044175;28;20502;-80
2022/04/03 08:22:58;;;;;;;3.83;3.40;;;;;;;;;;5047590;28;20429;-82
2022/04/03 08:25:24;;;;;;;4.57;3.67;;;;;;;;;;5041484;28;20493;-80
2022/04/03 08:27:51;;;;;;;4.30;3.70;;;;;;;;;;5043510;28;20427;-80
2022/04/03 08:30:19;;;;;;;4.45;3.38;;;;;;;;;;5043460;28;20512;-81
2022/04/03 08:32:45;;;;;;;4.15;3.75;;;;;;;;;;5043937;28;20865;-80
2022/04/03 08:35:14;;;;;;;7.50;3.80;;;;;;;;;;5046819;28;20415;-83
2022/04/03 08:37:41;;;;;;;4.50;3.30;;;;;;;;;;5043579;28;20435;-83
2022/04/03 08:40:08;;;;;;;5.60;3.50;;;;;;;;;;5036715;28;20434;-82
2022/04/03 08:42:34;;;;;;;5.53;3.33;;;;;;;;;;5038868;28;20437;-83
2022/04/03 08:45:01;;;;;;;4.40;3.40;;;;;;;;;;5036523;28;20497;-84
2022/04/03 08:47:28;;;;;;;5.30;3.67;;;;;;;;;;5045265;28;20949;-82
2022/04/03 08:49:56;;;;;;;7.60;3.95;;;;;;;;;;5042589;28;20457;-83
2022/04/03 08:52:24;;;;;;;3.83;3.25;;;;;;;;;;5045844;28;20434;-81
2022/04/03 08:54:50;;;;;;;5.20;3.10;;;;;;;;;;5031193;28;20462;-79
2022/04/03 08:57:17;;;;;;;5.32;3.38;;;;;;;;;;5039942;28;20498;-81
2022/04/03 08:59:44;;;;;;;4.87;3.30;;;;;;;;;;5038533;28;20856;-79
2022/04/03 09:02:13;;;;;;;4.50;3.20;;;;;;;;;;5039686;28;20994;-80
2022/04/03 09:04:39;;;;;;;5.20;3.33;;;;;;;;;;5038615;28;20430;-81
2022/04/03 09:07:05;;;;;;;4.80;3.42;;;;;;;;;;5036355;28;20431;-79
2022/04/03 09:09:33;;;;;;;5.50;3.10;;;;;;;;;;5039780;28;20426;-81
2022/04/03 09:12:12;;;;;;;4.50;2.90;;;;;;;;;;5040571;28;20440;-81
2022/04/03 09:14:44;;;;;;;3.97;2.97;;;;;;;;;;5042467;28;20446;-77
2022/04/03 09:17:11;;;;;;;7.00;3.20;;;;;;;;;;5043792;28;20426;-80
2022/04/03 09:19:37;;;;;;;2.80;2.00;;;;;;;;;;5040737;28;20425;-79
2022/04/03 09:22:03;;;;;;;2.38;1.90;;;;;;;;;;5040172;28;20489;-81
2022/04/03 09:24:30;;;;;;;2.30;1.40;;;;;;;;;;5041701;28;20500;-80
2022/04/03 09:27:02;;;;;;;2.60;1.70;;;;;;;;;;5037513;28;21017;-81
2022/04/03 09:29:29;;;;;;;2.78;1.65;;;;;;;;;;5042401;28;20481;-81
2022/04/03 09:31:59;;;;;;;4.07;1.80;;;;;;;;;;5044846;28;20443;-79
2022/04/03 09:34:26;;;;;;;2.15;1.90;;;;;;;;;;5044540;28;20448;-82
2022/04/03 09:36:56;;;;;;;5.35;1.58;;;;;;;;;;5041675;28;20483;-80
2022/04/03 09:39:24;;;;;;;1.60;1.38;;;;;;;;;;5043402;28;20453;-80
2022/04/03 09:41:57;;;;;;;4.40;1.60;;;;;;;;;;5043803;28;20442;-79
2022/04/03 09:44:29;;;;;;;4.07;2.10;;;;;;;;;;5043902;28;20425;-80
2022/04/03 09:47:12;;;;;;;3.03;1.53;;;;;;;;;;5042117;28;20432;-79
2022/04/03 09:49:38;;;;;;;2.30;1.57;;;;;;;;;;5042279;28;20510;-81
2022/04/03 09:52:05;;;;;;;3.05;1.40;;;;;;;;;;5040744;28;20462;-80
2022/04/03 09:54:32;;;;;;;3.65;1.40;;;;;;;;;;5043452;28;20421;-80
2022/04/03 09:57:17;;;;;;;3.85;1.50;;;;;;;;;;5044186;28;20435;-80
2022/04/03 09:59:49;;;;;;;3.53;1.60;;;;;;;;;;5043697;28;20423;-80
2022/04/03 10:02:15;;;;;;;1.70;1.40;;;;;;;;;;5042480;28;20425;-81
2022/04/03 10:04:42;;;;;;;3.10;1.40;;;;;;;;;;5041037;28;20468;-80
2022/04/03 10:07:09;;;;;;;2.85;1.50;;;;;;;;;;5044964;28;20761;-79
2022/04/03 10:09:36;;;;;;;2.20;1.30;;;;;;;;;;5040867;28;20549;-81
2022/04/03 10:12:02;;;;;;;5.95;2.30;;;;;;;;;;5043092;28;20424;-81
2022/04/03 10:14:28;;;;;;;2.10;1.50;;;;;;;;;;5042022;28;20954;-81
2022/04/03 10:16:56;;;;;;;1.60;1.30;;;;;;;;;;5044969;28;20415;-80
2022/04/03 10:19:22;;;;;;;1.55;1.00;;;;;;;;;;5042622;28;20440;-80
2022/04/03 10:21:53;;;;;;;1.83;1.10;;;;;;;;;;5058090;22;20777;-82
2022/04/03 10:24:20;;;;;;;2.85;1.50;;;;;;;;;;5047985;28;20449;-83
2022/04/03 10:26:50;;;;;;;3.83;1.30;;;;;;;;;;5038876;28;20908;-83
2022/04/03 10:29:17;;;;;;;3.40;1.35;;;;;;;;;;5041039;28;20438;-83
2022/04/03 10:31:54;;;;;;;2.90;1.63;;;;;;;;;;5035008;28;20443;-83
2022/04/03 10:34:23;;;;;;;2.92;1.42;;;;;;;;;;5022017;28;20850;-83
2022/04/03 10:36:50;;;;;;;2.92;1.75;;;;;;;;;;5020731;28;20479;-83
2022/04/03 10:39:22;;;;;;;3.80;1.88;;;;;;;;;;5022820;28;20994;-83
2022/04/03 10:41:48;;;;;;;5.13;2.05;;;;;;;;;;5021893;28;20969;-82
2022/04/03 10:44:15;;;;;;;3.03;1.70;;;;;;;;;;5021043;28;20928;-83
2022/04/03 10:47:00;;;;;;;3.40;1.43;;;;;;;;;;5023389;28;20827;-83
2022/04/03 10:49:30;;;;;;;2.83;1.90;;;;;;;;;;5020519;28;20423;-83
2022/04/03 10:51:57;;;;;;;3.75;2.22;;;;;;;;;;5022103;28;20435;-83
2022/04/03 10:54:29;;;;;;;5.60;2.67;;;;;;;;;;5024334;28;20431;-83
2022/04/03 10:57:15;;;;;;;7.28;2.40;;;;;;;;;;5025502;28;20473;-84
2022/04/03 10:59:43;;;;;;;5.60;2.10;;;;;;;;;;5024918;28;20421;-84
2022/04/03 11:02:13;;;;;;;4.38;2.15;;;;;;;;;;5023380;28;20440;-84
2022/04/03 11:04:40;;;;;;;4.72;1.77;;;;;;;;;;5023839;28;20519;-84
2022/04/03 11:07:13;;;;;;;3.30;2.20;;;;;;;;;;5024669;28;20479;-83
2022/04/03 11:09:40;;;;;;;5.47;2.10;;;;;;;;;;5022729;28;20443;-83
2022/04/03 11:12:07;;;;;;;4.60;2.00;;;;;;;;;;5023410;28;20435;-83
2022/04/03 11:14:55;;;;;;;7.28;2.60;;;;;;;;;;5025525;28;20420;-84
2022/04/03 11:17:40;;;;;;;4.32;2.03;;;;;;;;;;5025481;28;20426;-83
2022/04/03 11:20:07;;;;;;;4.03;2.20;;;;;;;;;;5023654;28;20421;-83
2022/04/03 11:22:33;;;;;;;4.53;2.20;;;;;;;;;;5023510;28;20497;-83
2022/04/03 11:25:00;;;;;;;5.70;2.10;;;;;;;;;;5024452;28;20411;-83
2022/04/03 11:27:27;;;;;;;7.53;2.53;;;;;;;;;;5024887;28;20478;-83
2022/04/03 11:29:55;;;;;;;4.00;1.60;;;;;;;;;;5021877;28;20419;-83
2022/04/03 11:32:21;;;;;;;3.67;1.90;;;;;;;;;;5025120;28;20756;-84
2022/04/03 11:34:56;;;;;;;7.60;2.00;;;;;;;;;;5023784;28;20775;-84
2022/04/03 11:37:23;;;;;;;7.43;2.10;;;;;;;;;;5022100;28;20434;-83
2022/04/03 11:39:49;;;;;;;3.80;1.90;;;;;;;;;;5022340;28;20419;-83
2022/04/03 11:42:15;;;;;;;5.55;2.13;;;;;;;;;;5024409;28;20502;-83
2022/04/03 11:44:51;;;;;;;4.40;2.10;;;;;;;;;;5024179;28;20468;-83
2022/04/03 11:47:24;;;;;;;5.63;2.22;;;;;;;;;;5024076;28;20491;-83
2022/04/03 11:50:04;;;;;;;5.55;2.15;;;;;;;;;;5021671;28;20425;-83
2022/04/03 11:52:30;;;;;;;4.90;1.90;;;;;;;;;;5023947;28;20415;-83
2022/04/03 11:54:57;;;;;;;6.07;2.10;;;;;;;;;;5022860;28;20854;-83
2022/04/03 11:57:23;;;;;;;5.20;1.98;;;;;;;;;;5022811;28;20440;-83
2022/04/03 11:59:53;;;;;;;5.22;1.60;;;;;;;;;;5020400;28;20424;-83
2022/04/03 12:02:21;;;;;;;4.70;2.10;;;;;;;;;;5023196;28;20438;-83
2022/04/03 12:04:48;;;;;;;5.67;2.30;;;;;;;;;;5024072;28;20417;-83
2022/04/03 12:07:14;;;;;;;5.65;2.17;;;;;;;;;;5022762;28;20408;-83
2022/04/03 12:09:42;;;;;;;5.72;2.10;;;;;;;;;;5020541;28;20433;-83
2022/04/03 12:12:08;;;;;;;4.85;2.00;;;;;;;;;;5020113;28;20498;-83
2022/04/03 12:14:36;;;;;;;5.43;1.75;;;;;;;;;;5021598;28;20428;-84
2022/04/03 12:17:03;;;;;;;5.47;1.45;;;;;;;;;;5021739;28;20411;-83
2022/04/03 12:19:34;;;;;;;2.85;1.10;;;;;;;;;;5022546;28;20429;-83
2022/04/03 12:22:04;;;;;;;2.90;1.13;;;;;;;;;;5020289;28;20432;-83
2022/04/03 12:24:31;;;;;;;2.20;1.00;;;;;;;;;;5021920;28;20473;-83
2022/04/03 12:26:59;;;;;;;2.38;1.20;;;;;;;;;;5019264;28;20420;-84
2022/04/03 12:29:27;;;;;;;2.30;1.02;;;;;;;;;;5021047;28;20430;-84
2022/04/03 12:31:57;;;;;;;1.55;0.90;;;;;;;;;;5022768;28;20423;-83
2022/04/03 12:34:23;;;;;;;3.70;1.15;;;;;;;;;;5018742;28;20918;-84
2022/04/03 12:36:52;;;;;;;4.53;0.93;;;;;;;;;;5020617;28;20442;-83
2022/04/03 12:39:31;;;;;;;3.67;1.00;;;;;;;;;;5020553;28;20426;-85
2022/04/03 12:42:08;;;;;;;2.30;0.85;;;;;;;;;;5021351;28;20435;-84
2022/04/03 12:44:40;;;;;;;2.33;0.65;;;;;;;;;;5020590;28;20419;-84
2022/04/03 12:47:12;;;;;;;2.22;0.82;;;;;;;;;;5018611;28;20430;-84
2022/04/03 12:49:38;;;;;;;2.40;0.87;;;;;;;;;;5019739;28;21067;-84
2022/04/03 12:52:06;;;;;;;1.50;0.70;;;;;;;;;;5020107;28;20491;-84
2022/04/03 12:54:40;;;;;;;3.22;0.90;;;;;;;;;;5020195;28;20431;-84
2022/04/03 13:00:04;;;;;;;2.45;0.70;;;;;;;;;;5019942;28;20437;-84
2022/04/03 13:02:37;;;;;;;2.53;1.20;;;;;;;;;;5021206;28;20419;-84
2022/04/03 13:05:03;;;;;;;3.70;1.30;;;;;;;;;;5020793;28;20427;-83
2022/04/03 13:07:30;;;;;;;3.28;1.50;;;;;;;;;;5020445;28;20432;-84
2022/04/03 13:09:57;;;;;;;3.10;1.80;;;;;;;;;;5021571;28;20424;-83
2022/04/03 13:12:27;;;;;;;3.88;1.70;;;;;;;;;;5020765;28;20907;-84
2022/04/03 13:14:54;;;;;;;3.28;1.27;;;;;;;;;;5018814;28;20434;-84
2022/04/03 13:17:20;;;;;;;2.53;0.80;;;;;;;;;;5017774;28;20830;-84
2022/04/03 13:19:46;;;;;;;1.92;0.80;;;;;;;;;;5021025;28;20420;-83
2022/04/03 13:22:15;;;;;;;1.85;0.90;;;;;;;;;;5018065;28;20460;-84
2022/04/03 13:24:42;;;;;;;1.70;1.10;;;;;;;;;;5020414;28;20934;-85
2022/04/03 13:27:09;;;;;;;4.30;1.20;;;;;;;;;;5021571;28;20481;-84
2022/04/03 13:29:38;;;;;;;3.10;1.00;;;;;;;;;;5017162;28;20419;-84
2022/04/03 13:32:04;;;;;;;1.63;0.90;;;;;;;;;;5018847;28;20518;-83
2022/04/03 13:34:31;;;;;;;3.30;0.90;;;;;;;;;;5020068;28;20430;-84
2022/04/03 13:36:57;;;;;;;1.70;1.05;;;;;;;;;;5020811;28;20429;-83
2022/04/03 13:39:24;;;;;;;2.95;1.05;;;;;;;;;;5020161;28;20840;-84
2022/04/03 13:41:52;;;;;;;3.33;1.13;;;;;;;;;;5023093;28;20816;-83
2022/04/03 13:44:20;;;;;;;2.60;1.25;;;;;;;;;;5022166;28;20419;-84
2022/04/03 13:46:46;;;;;;;3.33;1.20;;;;;;;;;;5021207;28;20464;-82
2022/04/03 13:49:13;;;;;;;3.00;1.40;;;;;;;;;;5020586;28;20438;-84
2022/04/03 13:51:40;;;;;;;1.60;1.00;;;;;;;;;;5020662;28;20492;-83
2022/04/03 13:54:06;;;;;;;3.00;1.60;;;;;;;;;;5023161;28;20412;-84
2022/04/03 13:56:33;;;;;;;2.20;1.10;;;;;;;;;;5020809;28;20490;-84
2022/04/03 13:59:01;;;;;;;3.20;1.10;;;;;;;;;;5020036;28;21119;-84
2022/04/03 14:01:27;;;;;;;3.67;1.20;;;;;;;;;;5022035;28;20514;-83
2022/04/03 14:03:53;;;;;;;4.10;1.20;;;;;;;;;;5021311;28;20463;-83
2022/04/03 14:06:20;;;;;;;2.30;1.10;;;;;;;;;;5021645;28;20425;-84
2022/04/03 14:08:46;;;;;;;1.45;0.90;;;;;;;;;;5016537;28;20418;-83
2022/04/03 14:11:13;;;;;;;3.40;1.70;;;;;;;;;;5020651;28;20428;-83
2022/04/03 14:13:39;;;;;;;2.00;1.20;;;;;;;;;;5021665;28;20424;-84
2022/04/03 14:16:08;;;;;;;5.40;1.40;;;;;;;;;;5022428;28;20420;-84
2022/04/03 14:18:34;;;;;;;5.30;1.30;;;;;;;;;;5021174;28;20422;-84
2022/04/03 14:21:01;;;;;;;2.47;1.20;;;;;;;;;;5021181;28;20980;-83
2022/04/03 14:23:30;;;;;;;2.95;1.30;;;;;;;;;;5020273;28;20426;-84
2022/04/03 14:25:56;;;;;;;2.30;1.00;;;;;;;;;;5024623;28;20524;-84
2022/04/03 14:28:22;;;;;;;2.05;0.88;;;;;;;;;;5024150;28;20455;-83
2022/04/03 14:30:49;;;;;;;1.23;0.90;;;;;;;;;;5025211;28;20924;-83
2022/04/03 14:33:16;;;;;;;3.72;1.20;;;;;;;;;;5025052;28;20415;-84
2022/04/03 14:35:42;;;;;;;2.30;1.05;;;;;;;;;;5025057;28;20479;-83
2022/04/03 14:38:09;;;;;;;3.20;1.10;;;;;;;;;;5021270;28;20440;-84
2022/04/03 14:40:35;;;;;;;2.60;1.00;;;;;;;;;;5025193;28;20435;-84
2022/04/03 14:43:02;;;;;;;3.22;1.00;;;;;;;;;;5025966;28;20487;-83
2022/04/03 14:45:28;;;;;;;1.30;1.00;;;;;;;;;;5024768;28;20976;-84
2022/04/03 14:47:54;;;;;;;2.70;1.17;;;;;;;;;;5022524;28;20515;-84